sensor_id;sensor_type;location;lat;lon;timestamp;pressure;altitude;pressure_sealevel;temperature;humidity
43217;BME280;60511;42.686;23.300;2023-07-08T00:00:58;95036.00;;;24.76;nan
43217;BME280;60511;42.686;23.300;2023-07-08T00:02:58;95029.97;;;24.83;nan
43217;BME280;60511;42.686;23.300;2023-07-08T00:04:58;95029.13;;;24.63;nan
43217;BME280;60511;42.686;23.300;2023-07-08T00:06:59;95012.50;;;24.80;nan
43217;BME280;60511;42.686;23.300;2023-07-08T00:08:59;95014.56;;;25.03;nan
43217;BME280;60511;42.686;23.300;2023-07-08T00:10:59;95019.97;;;25.03;nan
43217;BME280;60511;42.686;23.300;2023-07-08T00:12:59;95004.03;;;24.66;nan
43217;BME280;60511;42.686;23.300;2023-07-08T00:15:00;95000.53;;;24.81;nan
43217;BME280;60511;42.686;23.300;2023-07-08T00:17:00;94993.75;;;25.07;nan
43217;BME280;60511;42.686;23.300;2023-07-08T00:19:00;94997.69;;;25.10;nan
43217;BME280;60511;42.686;23.300;2023-07-08T00:21:01;95004.81;;;25.18;nan
43217;BME280;60511;42.686;23.300;2023-07-08T00:23:01;95002.59;;;25.04;nan
43217;BME280;60511;42.686;23.300;2023-07-08T00:25:01;94990.97;;;25.03;nan
43217;BME280;60511;42.686;23.300;2023-07-08T00:27:01;94997.22;;;25.23;nan
43217;BME280;60511;42.686;23.300;2023-07-08T00:29:02;94999.56;;;24.90;nan
43217;BME280;60511;42.686;23.300;2023-07-08T00:31:02;94999.81;;;24.84;nan
43217;BME280;60511;42.686;23.300;2023-07-08T00:33:02;94998.38;;;24.71;nan
43217;BME280;60511;42.686;23.300;2023-07-08T00:35:04;94992.19;;;24.55;nan
43217;BME280;60511;42.686;23.300;2023-07-08T00:37:04;94988.63;;;24.51;nan
43217;BME280;60511;42.686;23.300;2023-07-08T00:39:08;94990.25;;;24.71;nan
43217;BME280;60511;42.686;23.300;2023-07-08T00:41:20;94994.72;;;24.32;nan
43217;BME280;60511;42.686;23.300;2023-07-08T00:43:23;94991.06;;;24.40;nan
43217;BME280;60511;42.686;23.300;2023-07-08T00:45:29;94984.78;;;24.36;nan
43217;BME280;60511;42.686;23.300;2023-07-08T00:47:32;94986.34;;;24.53;nan
43217;BME280;60511;42.686;23.300;2023-07-08T00:51:35;94978.47;;;24.63;nan
43217;BME280;60511;42.686;23.300;2023-07-08T00:53:38;94969.22;;;24.49;nan
43217;BME280;60511;42.686;23.300;2023-07-08T00:55:38;94969.66;;;24.66;nan
43217;BME280;60511;42.686;23.300;2023-07-08T00:57:39;94969.91;;;24.77;nan
43217;BME280;60511;42.686;23.300;2023-07-08T00:59:45;94966.97;;;24.86;nan
43217;BME280;60511;42.686;23.300;2023-07-08T01:01:49;94970.25;;;24.76;nan
43217;BME280;60511;42.686;23.300;2023-07-08T01:03:57;94968.38;;;24.60;nan
43217;BME280;60511;42.686;23.300;2023-07-08T01:06:01;94967.94;;;24.94;nan
43217;BME280;60511;42.686;23.300;2023-07-08T01:08:02;94968.03;;;25.17;nan
43217;BME280;60511;42.686;23.300;2023-07-08T01:10:08;94969.72;;;25.05;nan
43217;BME280;60511;42.686;23.300;2023-07-08T01:12:13;94958.91;;;25.05;nan
43217;BME280;60511;42.686;23.300;2023-07-08T01:14:15;94967.66;;;25.18;nan
43217;BME280;60511;42.686;23.300;2023-07-08T01:16:17;94962.78;;;25.24;nan
43217;BME280;60511;42.686;23.300;2023-07-08T01:18:18;94967.44;;;25.23;nan
43217;BME280;60511;42.686;23.300;2023-07-08T01:20:24;94963.16;;;25.22;nan
43217;BME280;60511;42.686;23.300;2023-07-08T01:22:25;94955.38;;;25.21;nan
43217;BME280;60511;42.686;23.300;2023-07-08T01:24:25;94953.94;;;25.27;nan
43217;BME280;60511;42.686;23.300;2023-07-08T01:26:25;94959.94;;;25.36;nan
43217;BME280;60511;42.686;23.300;2023-07-08T01:28:26;94950.38;;;25.23;nan
43217;BME280;60511;42.686;23.300;2023-07-08T01:30:27;94955.56;;;25.12;nan
43217;BME280;60511;42.686;23.300;2023-07-08T01:32:28;94950.66;;;25.18;nan
43217;BME280;60511;42.686;23.300;2023-07-08T01:34:33;94953.31;;;24.98;nan
43217;BME280;60511;42.686;23.300;2023-07-08T01:36:36;94964.28;;;24.86;nan
43217;BME280;60511;42.686;23.300;2023-07-08T01:38:38;94959.69;;;24.71;nan
43217;BME280;60511;42.686;23.300;2023-07-08T01:40:47;94953.00;;;24.64;nan
43217;BME280;60511;42.686;23.300;2023-07-08T01:42:48;94950.72;;;24.35;nan
43217;BME280;60511;42.686;23.300;2023-07-08T01:44:48;94955.81;;;24.52;nan
43217;BME280;60511;42.686;23.300;2023-07-08T01:46:49;94952.84;;;24.25;nan
43217;BME280;60511;42.686;23.300;2023-07-08T01:48:51;94954.06;;;24.28;nan
43217;BME280;60511;42.686;23.300;2023-07-08T01:51:03;94953.00;;;24.33;nan
43217;BME280;60511;42.686;23.300;2023-07-08T01:53:06;94957.09;;;24.26;nan
43217;BME280;60511;42.686;23.300;2023-07-08T01:55:08;94939.84;;;24.15;nan
43217;BME280;60511;42.686;23.300;2023-07-08T01:57:09;94939.22;;;24.22;nan
43217;BME280;60511;42.686;23.300;2023-07-08T01:59:10;94946.81;;;24.16;nan
43217;BME280;60511;42.686;23.300;2023-07-08T02:01:10;94942.09;;;24.29;nan
43217;BME280;60511;42.686;23.300;2023-07-08T02:03:10;94942.84;;;24.45;nan
43217;BME280;60511;42.686;23.300;2023-07-08T02:05:11;94940.94;;;24.46;nan
43217;BME280;60511;42.686;23.300;2023-07-08T02:07:11;94950.88;;;24.58;nan
43217;BME280;60511;42.686;23.300;2023-07-08T02:09:11;94946.63;;;24.57;nan
43217;BME280;60511;42.686;23.300;2023-07-08T02:11:11;94946.13;;;24.19;nan
43217;BME280;60511;42.686;23.300;2023-07-08T02:13:12;94954.72;;;24.41;nan
43217;BME280;60511;42.686;23.300;2023-07-08T02:15:13;94956.84;;;24.32;nan
43217;BME280;60511;42.686;23.300;2023-07-08T02:17:13;94960.31;;;24.48;nan
43217;BME280;60511;42.686;23.300;2023-07-08T02:19:16;94957.44;;;24.25;nan
43217;BME280;60511;42.686;23.300;2023-07-08T02:21:17;94954.03;;;24.12;nan
43217;BME280;60511;42.686;23.300;2023-07-08T02:23:18;94964.16;;;23.99;nan
43217;BME280;60511;42.686;23.300;2023-07-08T02:25:18;94957.53;;;24.13;nan
43217;BME280;60511;42.686;23.300;2023-07-08T02:27:18;94970.72;;;24.14;nan
43217;BME280;60511;42.686;23.300;2023-07-08T02:29:18;94966.00;;;24.11;nan
43217;BME280;60511;42.686;23.300;2023-07-08T02:31:19;94960.47;;;24.39;nan
43217;BME280;60511;42.686;23.300;2023-07-08T02:33:19;94972.91;;;24.56;nan
43217;BME280;60511;42.686;23.300;2023-07-08T02:35:19;94981.28;;;24.51;nan
43217;BME280;60511;42.686;23.300;2023-07-08T02:37:20;94985.38;;;24.45;nan
43217;BME280;60511;42.686;23.300;2023-07-08T02:39:20;94979.59;;;24.46;nan
43217;BME280;60511;42.686;23.300;2023-07-08T02:41:20;94984.94;;;24.59;nan
43217;BME280;60511;42.686;23.300;2023-07-08T02:43:21;94989.03;;;24.69;nan
43217;BME280;60511;42.686;23.300;2023-07-08T02:45:21;94990.94;;;24.68;nan
43217;BME280;60511;42.686;23.300;2023-07-08T02:47:21;95004.31;;;24.61;nan
43217;BME280;60511;42.686;23.300;2023-07-08T02:49:22;94992.97;;;24.23;nan
43217;BME280;60511;42.686;23.300;2023-07-08T02:51:24;94999.50;;;24.38;nan
43217;BME280;60511;42.686;23.300;2023-07-08T02:53:25;95009.31;;;24.59;nan
43217;BME280;60511;42.686;23.300;2023-07-08T02:55:26;95004.38;;;24.33;nan
43217;BME280;60511;42.686;23.300;2023-07-08T02:57:27;95002.38;;;24.45;nan
43217;BME280;60511;42.686;23.300;2023-07-08T02:59:27;95009.75;;;24.61;nan
43217;BME280;60511;42.686;23.300;2023-07-08T03:01:28;95008.75;;;24.69;nan
43217;BME280;60511;42.686;23.300;2023-07-08T03:03:34;95001.19;;;24.59;nan
43217;BME280;60511;42.686;23.300;2023-07-08T03:08:20;95004.13;;;24.85;nan
43217;BME280;60511;42.686;23.300;2023-07-08T03:17:43;95001.19;;;24.94;nan
43217;BME280;60511;42.686;23.300;2023-07-08T03:19:43;95007.66;;;25.05;nan
43217;BME280;60511;42.686;23.300;2023-07-08T03:21:44;94998.66;;;25.01;nan
43217;BME280;60511;42.686;23.300;2023-07-08T03:23:44;94999.97;;;25.08;nan
43217;BME280;60511;42.686;23.300;2023-07-08T03:25:45;94994.88;;;25.06;nan
43217;BME280;60511;42.686;23.300;2023-07-08T03:27:45;94996.66;;;24.98;nan
43217;BME280;60511;42.686;23.300;2023-07-08T03:29:45;95000.84;;;24.96;nan
43217;BME280;60511;42.686;23.300;2023-07-08T03:31:45;94996.81;;;25.05;nan
43217;BME280;60511;42.686;23.300;2023-07-08T03:33:46;94997.84;;;24.81;nan
43217;BME280;60511;42.686;23.300;2023-07-08T03:35:46;94993.09;;;24.78;nan
43217;BME280;60511;42.686;23.300;2023-07-08T03:37:47;94984.84;;;24.71;nan
43217;BME280;60511;42.686;23.300;2023-07-08T03:39:47;94986.72;;;24.86;nan
43217;BME280;60511;42.686;23.300;2023-07-08T03:41:48;94986.19;;;24.97;nan
43217;BME280;60511;42.686;23.300;2023-07-08T03:43:49;94988.91;;;24.97;nan
43217;BME280;60511;42.686;23.300;2023-07-08T03:45:52;94982.56;;;24.73;nan
43217;BME280;60511;42.686;23.300;2023-07-08T03:47:53;94980.72;;;24.77;nan
43217;BME280;60511;42.686;23.300;2023-07-08T03:49:53;94989.50;;;24.90;nan
43217;BME280;60511;42.686;23.300;2023-07-08T03:51:54;94981.19;;;24.63;nan
43217;BME280;60511;42.686;23.300;2023-07-08T03:53:54;94982.50;;;24.54;nan
43217;BME280;60511;42.686;23.300;2023-07-08T03:55:55;94984.22;;;24.62;nan
43217;BME280;60511;42.686;23.300;2023-07-08T03:57:55;94983.38;;;24.58;nan
43217;BME280;60511;42.686;23.300;2023-07-08T03:59:55;94977.78;;;24.66;nan
43217;BME280;60511;42.686;23.300;2023-07-08T04:01:55;94973.06;;;24.63;nan
43217;BME280;60511;42.686;23.300;2023-07-08T04:03:56;94976.72;;;24.71;nan
43217;BME280;60511;42.686;23.300;2023-07-08T04:05:57;94975.69;;;24.60;nan
43217;BME280;60511;42.686;23.300;2023-07-08T04:07:57;94980.94;;;24.53;nan
43217;BME280;60511;42.686;23.300;2023-07-08T04:09:58;94978.66;;;24.55;nan
43217;BME280;60511;42.686;23.300;2023-07-08T04:11:58;94984.06;;;24.71;nan
43217;BME280;60511;42.686;23.300;2023-07-08T04:13:59;94987.34;;;24.80;nan
43217;BME280;60511;42.686;23.300;2023-07-08T04:16:01;94979.84;;;24.73;nan
43217;BME280;60511;42.686;23.300;2023-07-08T04:18:02;94992.63;;;24.73;nan
43217;BME280;60511;42.686;23.300;2023-07-08T04:20:02;94995.63;;;24.87;nan
43217;BME280;60511;42.686;23.300;2023-07-08T04:22:04;94990.41;;;24.78;nan
43217;BME280;60511;42.686;23.300;2023-07-08T04:24:05;94989.41;;;24.86;nan
43217;BME280;60511;42.686;23.300;2023-07-08T04:26:08;94988.94;;;24.81;nan
43217;BME280;60511;42.686;23.300;2023-07-08T04:28:08;94988.66;;;24.86;nan
43217;BME280;60511;42.686;23.300;2023-07-08T04:30:13;94994.16;;;24.90;nan
43217;BME280;60511;42.686;23.300;2023-07-08T04:32:17;94989.63;;;24.78;nan
43217;BME280;60511;42.686;23.300;2023-07-08T04:34:17;94999.75;;;24.81;nan
43217;BME280;60511;42.686;23.300;2023-07-08T04:36:17;95000.34;;;24.90;nan
43217;BME280;60511;42.686;23.300;2023-07-08T04:38:22;94997.84;;;24.65;nan
43217;BME280;60511;42.686;23.300;2023-07-08T04:40:23;95006.31;;;24.64;nan
43217;BME280;60511;42.686;23.300;2023-07-08T04:42:23;95011.88;;;24.39;nan
43217;BME280;60511;42.686;23.300;2023-07-08T04:44:24;95005.63;;;24.19;nan
43217;BME280;60511;42.686;23.300;2023-07-08T04:46:35;95006.56;;;24.11;nan
43217;BME280;60511;42.686;23.300;2023-07-08T04:48:37;94998.44;;;24.27;nan
43217;BME280;60511;42.686;23.300;2023-07-08T04:50:39;94984.16;;;24.26;nan
43217;BME280;60511;42.686;23.300;2023-07-08T04:52:39;94999.22;;;23.96;nan
43217;BME280;60511;42.686;23.300;2023-07-08T04:54:40;95003.00;;;24.07;nan
43217;BME280;60511;42.686;23.300;2023-07-08T04:56:44;95014.44;;;24.32;nan
43217;BME280;60511;42.686;23.300;2023-07-08T04:58:45;95007.34;;;24.12;nan
43217;BME280;60511;42.686;23.300;2023-07-08T05:00:45;95009.03;;;24.32;nan
43217;BME280;60511;42.686;23.300;2023-07-08T05:02:45;95019.66;;;24.41;nan
43217;BME280;60511;42.686;23.300;2023-07-08T05:04:46;95021.19;;;23.78;nan
43217;BME280;60511;42.686;23.300;2023-07-08T05:06:47;95016.03;;;23.61;nan
43217;BME280;60511;42.686;23.300;2023-07-08T05:08:47;95025.72;;;23.90;nan
43217;BME280;60511;42.686;23.300;2023-07-08T05:10:48;95023.47;;;24.08;nan
43217;BME280;60511;42.686;23.300;2023-07-08T05:12:48;95022.28;;;24.37;nan
43217;BME280;60511;42.686;23.300;2023-07-08T05:14:48;95028.78;;;24.04;nan
43217;BME280;60511;42.686;23.300;2023-07-08T05:16:49;95030.69;;;23.88;nan
43217;BME280;60511;42.686;23.300;2023-07-08T05:18:49;95028.13;;;23.79;nan
43217;BME280;60511;42.686;23.300;2023-07-08T05:20:50;95023.91;;;23.54;nan
43217;BME280;60511;42.686;23.300;2023-07-08T05:22:52;95018.47;;;23.78;nan
43217;BME280;60511;42.686;23.300;2023-07-08T05:24:52;95027.75;;;23.93;nan
43217;BME280;60511;42.686;23.300;2023-07-08T05:26:55;95034.03;;;23.97;nan
43217;BME280;60511;42.686;23.300;2023-07-08T05:28:55;95030.81;;;24.08;nan
43217;BME280;60511;42.686;23.300;2023-07-08T05:30:56;95031.97;;;24.38;nan
43217;BME280;60511;42.686;23.300;2023-07-08T05:32:56;95040.69;;;24.16;nan
43217;BME280;60511;42.686;23.300;2023-07-08T05:34:57;95041.16;;;23.90;nan
43217;BME280;60511;42.686;23.300;2023-07-08T05:36:58;95037.13;;;23.83;nan
43217;BME280;60511;42.686;23.300;2023-07-08T05:38:58;95037.34;;;23.91;nan
43217;BME280;60511;42.686;23.300;2023-07-08T05:40:59;95031.50;;;24.04;nan
43217;BME280;60511;42.686;23.300;2023-07-08T05:42:59;95023.53;;;24.40;nan
43217;BME280;60511;42.686;23.300;2023-07-08T05:44:59;95035.94;;;24.57;nan
43217;BME280;60511;42.686;23.300;2023-07-08T05:47:00;95039.22;;;24.66;nan
43217;BME280;60511;42.686;23.300;2023-07-08T05:49:00;95038.69;;;24.44;nan
43217;BME280;60511;42.686;23.300;2023-07-08T05:51:00;95034.16;;;24.33;nan
43217;BME280;60511;42.686;23.300;2023-07-08T05:53:01;95048.97;;;24.39;nan
43217;BME280;60511;42.686;23.300;2023-07-08T05:55:01;95045.88;;;24.53;nan
43217;BME280;60511;42.686;23.300;2023-07-08T05:57:01;95057.75;;;24.64;nan
43217;BME280;60511;42.686;23.300;2023-07-08T05:59:02;95044.19;;;24.48;nan
43217;BME280;60511;42.686;23.300;2023-07-08T06:01:02;95047.50;;;24.41;nan
43217;BME280;60511;42.686;23.300;2023-07-08T06:03:03;95050.25;;;24.57;nan
43217;BME280;60511;42.686;23.300;2023-07-08T06:05:03;95047.94;;;24.43;nan
43217;BME280;60511;42.686;23.300;2023-07-08T06:07:04;95053.69;;;24.26;nan
43217;BME280;60511;42.686;23.300;2023-07-08T06:09:04;95047.41;;;24.22;nan
43217;BME280;60511;42.686;23.300;2023-07-08T06:11:04;95062.94;;;24.41;nan
43217;BME280;60511;42.686;23.300;2023-07-08T06:13:04;95053.78;;;24.45;nan
43217;BME280;60511;42.686;23.300;2023-07-08T06:15:05;95049.53;;;24.44;nan
43217;BME280;60511;42.686;23.300;2023-07-08T06:17:06;95058.00;;;24.59;nan
43217;BME280;60511;42.686;23.300;2023-07-08T06:19:06;95058.31;;;24.25;nan
43217;BME280;60511;42.686;23.300;2023-07-08T06:21:06;95052.53;;;24.27;nan
43217;BME280;60511;42.686;23.300;2023-07-08T06:23:07;95057.97;;;24.43;nan
43217;BME280;60511;42.686;23.300;2023-07-08T06:25:08;95063.38;;;24.11;nan
43217;BME280;60511;42.686;23.300;2023-07-08T06:27:09;95061.97;;;24.17;nan
43217;BME280;60511;42.686;23.300;2023-07-08T06:29:11;95059.72;;;24.19;nan
43217;BME280;60511;42.686;23.300;2023-07-08T06:31:11;95069.31;;;24.33;nan
43217;BME280;60511;42.686;23.300;2023-07-08T06:33:12;95065.25;;;24.55;nan
43217;BME280;60511;42.686;23.300;2023-07-08T06:35:13;95060.44;;;24.48;nan
43217;BME280;60511;42.686;23.300;2023-07-08T06:37:13;95058.94;;;24.35;nan
43217;BME280;60511;42.686;23.300;2023-07-08T06:39:14;95061.59;;;24.03;nan
43217;BME280;60511;42.686;23.300;2023-07-08T06:41:14;95062.06;;;24.21;nan
43217;BME280;60511;42.686;23.300;2023-07-08T06:43:15;95061.41;;;24.40;nan
43217;BME280;60511;42.686;23.300;2023-07-08T06:45:15;95058.75;;;24.43;nan
43217;BME280;60511;42.686;23.300;2023-07-08T06:47:18;95054.22;;;24.47;nan
43217;BME280;60511;42.686;23.300;2023-07-08T06:49:20;95055.03;;;24.48;nan
43217;BME280;60511;42.686;23.300;2023-07-08T06:51:20;95055.09;;;24.20;nan
43217;BME280;60511;42.686;23.300;2023-07-08T06:53:20;95066.47;;;23.97;nan
43217;BME280;60511;42.686;23.300;2023-07-08T06:55:21;95065.25;;;24.11;nan
43217;BME280;60511;42.686;23.300;2023-07-08T06:57:21;95059.41;;;24.09;nan
43217;BME280;60511;42.686;23.300;2023-07-08T06:59:22;95074.56;;;24.25;nan
43217;BME280;60511;42.686;23.300;2023-07-08T07:01:22;95080.81;;;23.85;nan
43217;BME280;60511;42.686;23.300;2023-07-08T07:03:23;95069.88;;;24.10;nan
43217;BME280;60511;42.686;23.300;2023-07-08T07:05:24;95068.22;;;24.05;nan
43217;BME280;60511;42.686;23.300;2023-07-08T07:07:25;95075.63;;;24.09;nan
43217;BME280;60511;42.686;23.300;2023-07-08T07:09:25;95072.28;;;24.27;nan
43217;BME280;60511;42.686;23.300;2023-07-08T07:11:25;95062.56;;;24.11;nan
43217;BME280;60511;42.686;23.300;2023-07-08T07:13:26;95067.75;;;24.32;nan
43217;BME280;60511;42.686;23.300;2023-07-08T07:15:26;95072.19;;;24.24;nan
43217;BME280;60511;42.686;23.300;2023-07-08T07:17:27;95071.66;;;24.18;nan
43217;BME280;60511;42.686;23.300;2023-07-08T07:19:27;95079.53;;;23.95;nan
43217;BME280;60511;42.686;23.300;2023-07-08T07:21:27;95083.69;;;24.21;nan
43217;BME280;60511;42.686;23.300;2023-07-08T07:23:28;95086.56;;;24.12;nan
43217;BME280;60511;42.686;23.300;2023-07-08T07:25:28;95076.66;;;23.76;nan
43217;BME280;60511;42.686;23.300;2023-07-08T07:27:29;95100.66;;;23.77;nan
43217;BME280;60511;42.686;23.300;2023-07-08T07:29:35;95089.09;;;23.77;nan
43217;BME280;60511;42.686;23.300;2023-07-08T07:31:37;95089.31;;;23.59;nan
43217;BME280;60511;42.686;23.300;2023-07-08T07:33:39;95092.41;;;23.86;nan
43217;BME280;60511;42.686;23.300;2023-07-08T07:35:44;95106.53;;;24.08;nan
43217;BME280;60511;42.686;23.300;2023-07-08T07:37:44;95087.47;;;23.76;nan
43217;BME280;60511;42.686;23.300;2023-07-08T07:39:46;95106.72;;;23.86;nan
43217;BME280;60511;42.686;23.300;2023-07-08T07:41:46;95104.44;;;24.01;nan
43217;BME280;60511;42.686;23.300;2023-07-08T07:43:46;95108.84;;;24.37;nan
43217;BME280;60511;42.686;23.300;2023-07-08T07:45:53;95107.56;;;24.03;nan
43217;BME280;60511;42.686;23.300;2023-07-08T07:47:53;95083.84;;;23.84;nan
43217;BME280;60511;42.686;23.300;2023-07-08T07:49:53;95095.06;;;23.98;nan
43217;BME280;60511;42.686;23.300;2023-07-08T07:51:54;95100.84;;;24.13;nan
43217;BME280;60511;42.686;23.300;2023-07-08T07:53:54;95100.84;;;23.97;nan
43217;BME280;60511;42.686;23.300;2023-07-08T07:55:58;95083.63;;;24.17;nan
43217;BME280;60511;42.686;23.300;2023-07-08T07:57:59;95090.69;;;24.22;nan
43217;BME280;60511;42.686;23.300;2023-07-08T08:00:00;95098.03;;;24.37;nan
43217;BME280;60511;42.686;23.300;2023-07-08T08:02:01;95089.81;;;24.18;nan
43217;BME280;60511;42.686;23.300;2023-07-08T08:04:01;95096.91;;;24.38;nan
43217;BME280;60511;42.686;23.300;2023-07-08T08:06:02;95094.78;;;24.16;nan
43217;BME280;60511;42.686;23.300;2023-07-08T08:08:02;95087.00;;;24.14;nan
43217;BME280;60511;42.686;23.300;2023-07-08T08:10:04;95085.38;;;24.25;nan
43217;BME280;60511;42.686;23.300;2023-07-08T08:12:04;95103.25;;;24.30;nan
43217;BME280;60511;42.686;23.300;2023-07-08T08:14:05;95099.91;;;24.21;nan
43217;BME280;60511;42.686;23.300;2023-07-08T08:16:06;95095.63;;;24.64;nan
43217;BME280;60511;42.686;23.300;2023-07-08T08:18:06;95088.47;;;24.56;nan
43217;BME280;60511;42.686;23.300;2023-07-08T08:20:07;95099.75;;;24.14;nan
43217;BME280;60511;42.686;23.300;2023-07-08T08:22:07;95094.75;;;24.60;nan
43217;BME280;60511;42.686;23.300;2023-07-08T08:24:07;95098.06;;;24.53;nan
43217;BME280;60511;42.686;23.300;2023-07-08T08:26:08;95106.19;;;24.53;nan
43217;BME280;60511;42.686;23.300;2023-07-08T08:28:08;95089.28;;;24.56;nan
43217;BME280;60511;42.686;23.300;2023-07-08T08:30:09;95093.25;;;24.46;nan
43217;BME280;60511;42.686;23.300;2023-07-08T08:32:10;95085.06;;;24.59;nan
43217;BME280;60511;42.686;23.300;2023-07-08T08:34:10;95087.78;;;24.59;nan
43217;BME280;60511;42.686;23.300;2023-07-08T08:36:10;95090.31;;;24.67;nan
43217;BME280;60511;42.686;23.300;2023-07-08T08:38:11;95102.44;;;24.58;nan
43217;BME280;60511;42.686;23.300;2023-07-08T08:40:13;95090.63;;;24.34;nan
43217;BME280;60511;42.686;23.300;2023-07-08T08:42:17;95086.06;;;24.66;nan
43217;BME280;60511;42.686;23.300;2023-07-08T08:44:21;95083.94;;;24.76;nan
43217;BME280;60511;42.686;23.300;2023-07-08T08:48:25;95093.00;;;25.15;nan
43217;BME280;60511;42.686;23.300;2023-07-08T08:52:28;95088.72;;;24.98;nan
43217;BME280;60511;42.686;23.300;2023-07-08T08:54:29;95093.53;;;24.73;nan
43217;BME280;60511;42.686;23.300;2023-07-08T08:59:26;95091.81;;;24.81;nan
43217;BME280;60511;42.686;23.300;2023-07-08T09:01:11;95095.44;;;24.89;nan
43217;BME280;60511;42.686;23.300;2023-07-08T09:03:15;95096.69;;;24.91;nan
43217;BME280;60511;42.686;23.300;2023-07-08T09:05:16;95089.44;;;24.79;nan
43217;BME280;60511;42.686;23.300;2023-07-08T09:07:18;95089.44;;;24.95;nan
43217;BME280;60511;42.686;23.300;2023-07-08T09:09:21;95084.81;;;24.96;nan
43217;BME280;60511;42.686;23.300;2023-07-08T09:11:35;95091.88;;;25.00;nan
43217;BME280;60511;42.686;23.300;2023-07-08T09:13:36;95090.19;;;25.12;nan
43217;BME280;60511;42.686;23.300;2023-07-08T09:15:37;95066.44;;;25.21;nan
43217;BME280;60511;42.686;23.300;2023-07-08T09:17:37;95084.16;;;25.18;nan
43217;BME280;60511;42.686;23.300;2023-07-08T09:19:40;95082.84;;;25.12;nan
43217;BME280;60511;42.686;23.300;2023-07-08T09:23:42;95074.72;;;25.12;nan
43217;BME280;60511;42.686;23.300;2023-07-08T09:26:01;95086.34;;;25.29;nan
43217;BME280;60511;42.686;23.300;2023-07-08T09:28:04;95067.31;;;25.09;nan
43217;BME280;60511;42.686;23.300;2023-07-08T09:30:04;95081.44;;;25.18;nan
43217;BME280;60511;42.686;23.300;2023-07-08T09:32:15;95074.84;;;25.00;nan
43217;BME280;60511;42.686;23.300;2023-07-08T09:34:21;95066.59;;;25.12;nan
43217;BME280;60511;42.686;23.300;2023-07-08T09:36:23;95062.78;;;25.13;nan
43217;BME280;60511;42.686;23.300;2023-07-08T09:38:23;95054.00;;;25.20;nan
43217;BME280;60511;42.686;23.300;2023-07-08T09:42:29;95066.75;;;25.35;nan
43217;BME280;60511;42.686;23.300;2023-07-08T09:44:29;95058.91;;;25.30;nan
43217;BME280;60511;42.686;23.300;2023-07-08T09:46:34;95059.41;;;25.36;nan
43217;BME280;60511;42.686;23.300;2023-07-08T09:48:36;95050.09;;;25.17;nan
43217;BME280;60511;42.686;23.300;2023-07-08T09:50:36;95039.59;;;25.32;nan
43217;BME280;60511;42.686;23.300;2023-07-08T09:52:36;95048.38;;;25.44;nan
43217;BME280;60511;42.686;23.300;2023-07-08T09:54:37;95043.16;;;25.75;nan
43217;BME280;60511;42.686;23.300;2023-07-08T09:56:41;95043.16;;;25.94;nan
43217;BME280;60511;42.686;23.300;2023-07-08T09:58:42;95043.78;;;26.07;nan
43217;BME280;60511;42.686;23.300;2023-07-08T10:00:50;95040.44;;;26.14;nan
43217;BME280;60511;42.686;23.300;2023-07-08T10:02:52;95046.72;;;26.18;nan
43217;BME280;60511;42.686;23.300;2023-07-08T10:04:54;95045.28;;;26.24;nan
43217;BME280;60511;42.686;23.300;2023-07-08T10:06:55;95043.41;;;26.28;nan
43217;BME280;60511;42.686;23.300;2023-07-08T10:08:59;95041.53;;;26.32;nan
43217;BME280;60511;42.686;23.300;2023-07-08T10:11:13;95032.66;;;26.35;nan
43217;BME280;60511;42.686;23.300;2023-07-08T10:15:22;95038.94;;;26.39;nan
43217;BME280;60511;42.686;23.300;2023-07-08T10:17:23;95025.78;;;26.41;nan
43217;BME280;60511;42.686;23.300;2023-07-08T10:19:23;95034.72;;;26.42;nan
43217;BME280;60511;42.686;23.300;2023-07-08T10:28:28;95019.81;;;26.55;nan
43217;BME280;60511;42.686;23.300;2023-07-08T10:30:36;95021.84;;;26.58;nan
43217;BME280;60511;42.686;23.300;2023-07-08T10:37:22;95012.53;;;26.59;nan
43217;BME280;60511;42.686;23.300;2023-07-08T10:44:04;95004.88;;;26.65;nan
43217;BME280;60511;42.686;23.300;2023-07-08T10:46:13;95004.53;;;26.67;nan
43217;BME280;60511;42.686;23.300;2023-07-08T11:01:10;94979.53;;;26.84;nan
43217;BME280;60511;42.686;23.300;2023-07-08T11:03:48;94991.59;;;26.86;nan
43217;BME280;60511;42.686;23.300;2023-07-08T11:05:44;95004.47;;;26.90;nan
43217;BME280;60511;42.686;23.300;2023-07-08T11:07:48;94991.66;;;26.90;nan
43217;BME280;60511;42.686;23.300;2023-07-08T11:09:56;94998.63;;;26.88;nan
43217;BME280;60511;42.686;23.300;2023-07-08T11:18:36;94977.31;;;26.90;nan
43217;BME280;60511;42.686;23.300;2023-07-08T11:20:54;94977.38;;;26.93;nan
43217;BME280;60511;42.686;23.300;2023-07-08T11:23:00;94977.81;;;26.99;nan
43217;BME280;60511;42.686;23.300;2023-07-08T11:25:03;94978.97;;;26.98;nan
43217;BME280;60511;42.686;23.300;2023-07-08T11:27:48;94979.44;;;27.03;nan
43217;BME280;60511;42.686;23.300;2023-07-08T11:32:03;94968.19;;;27.05;nan
43217;BME280;60511;42.686;23.300;2023-07-08T11:34:04;94978.75;;;27.10;nan
43217;BME280;60511;42.686;23.300;2023-07-08T11:36:04;94977.22;;;27.13;nan
43217;BME280;60511;42.686;23.300;2023-07-08T11:38:05;94972.97;;;27.15;nan
43217;BME280;60511;42.686;23.300;2023-07-08T11:40:08;94972.56;;;27.13;nan
43217;BME280;60511;42.686;23.300;2023-07-08T11:44:11;94982.59;;;27.09;nan
43217;BME280;60511;42.686;23.300;2023-07-08T11:46:14;94975.78;;;27.22;nan
43217;BME280;60511;42.686;23.300;2023-07-08T11:48:15;94972.75;;;27.24;nan
43217;BME280;60511;42.686;23.300;2023-07-08T11:50:21;94968.91;;;27.29;nan
43217;BME280;60511;42.686;23.300;2023-07-08T11:52:22;94971.59;;;27.25;nan
43217;BME280;60511;42.686;23.300;2023-07-08T11:54:29;94967.44;;;27.35;nan
43217;BME280;60511;42.686;23.300;2023-07-08T11:56:50;94967.50;;;27.42;nan
43217;BME280;60511;42.686;23.300;2023-07-08T12:01:27;94971.44;;;27.44;nan